Terminal Aerodrome Forecast
Issued by NWS

Home | Current Version | Previous Version | Text Only | Print | Product List | Glossary On
Versions: 1 2 3 4 5 6 7 8 9 10 11 12 13 14 15 16
000
FTUS45 KABQ 311314 AAA
TAFSAF
TAF AMD
KSAF 311314Z 3113/0112 16006KT P6SM SCT025 BKN050
      TEMPO 3113/3115 BKN019 BKN035
     FM311800 21008KT P6SM SCT060 BKN090
     FM312100 14010KT P6SM VCTS BKN050CB
     FM010200 13010KT P6SM VCSH BKN080
     FM010700 03006KT P6SM FEW025 BKN090=

USA.gov is the U.S. government's official web portal to all federal, state and local government web resources and services.